createdAt,value
2022-09-20T00:00:48.581Z,8.20
2022-09-20T00:03:16.820Z,8.19
2022-09-20T00:05:46.013Z,8.19
2022-09-20T00:08:15.702Z,8.18
2022-09-20T00:10:43.108Z,8.19
2022-09-20T00:13:11.998Z,8.16
2022-09-20T00:15:44.343Z,8.12
2022-09-20T00:18:12.604Z,8.16
2022-09-20T00:20:47.048Z,8.11
2022-09-20T00:23:15.028Z,8.11
2022-09-20T00:25:42.269Z,8.08
2022-09-20T00:28:10.516Z,8.03
2022-09-20T00:30:38.497Z,8.04
2022-09-20T00:33:05.504Z,8.02
2022-09-20T00:35:33.019Z,8.00
2022-09-20T00:38:00.321Z,8.03
2022-09-20T00:40:27.346Z,8.01
2022-09-20T00:42:54.576Z,7.94
2022-09-20T00:45:23.102Z,7.94
2022-09-20T00:47:56.585Z,7.89
2022-09-20T00:50:49.886Z,7.89
2022-09-20T00:53:26.496Z,7.86
2022-09-20T00:55:58.129Z,7.83
2022-09-20T00:58:26.614Z,7.84
2022-09-20T01:00:55.642Z,7.85
2022-09-20T01:03:25.226Z,7.85
2022-09-20T01:05:53.879Z,7.84
2022-09-20T01:08:21.795Z,7.80
2022-09-20T01:10:48.916Z,7.79
2022-09-20T01:13:16.007Z,7.80
2022-09-20T01:15:44.637Z,7.81
2022-09-20T01:18:12.238Z,7.79
2022-09-20T01:20:42.016Z,7.81
2022-09-20T01:23:12.391Z,7.82
2022-09-20T01:26:03.928Z,7.85
2022-09-20T01:28:34.465Z,7.83
2022-09-20T01:31:26.569Z,7.85
2022-09-20T01:34:02.502Z,7.83
2022-09-20T01:36:50.362Z,7.81
2022-09-20T01:39:28.071Z,7.82
2022-09-20T01:42:00.234Z,7.79
2022-09-20T01:44:35.833Z,7.75
2022-09-20T01:47:11.851Z,7.78
2022-09-20T01:49:42.160Z,7.81
2022-09-20T01:52:33.614Z,7.76
2022-09-20T01:55:28.718Z,7.78
2022-09-20T01:58:08.036Z,7.73
2022-09-20T02:00:58.107Z,7.71
2022-09-20T02:03:57.549Z,7.69
2022-09-20T02:06:43.081Z,7.68
2022-09-20T02:09:39.451Z,7.70
2022-09-20T02:12:25.395Z,7.67
2022-09-20T02:15:04.012Z,7.62
2022-09-20T02:18:10.422Z,7.61
2022-09-20T02:20:45.037Z,7.57
2022-09-20T02:23:22.985Z,7.56
2022-09-20T02:26:00.547Z,7.54
2022-09-20T02:28:49.774Z,7.55
2022-09-20T02:31:41.255Z,7.52
2022-09-20T02:34:32.553Z,7.49
2022-09-20T02:37:08.043Z,7.48
2022-09-20T02:40:09.023Z,7.44
2022-09-20T02:42:51.752Z,7.41
2022-09-20T02:45:43.086Z,7.38
2022-09-20T02:48:10.241Z,7.34
2022-09-20T02:50:59.925Z,7.32
2022-09-20T02:54:03.648Z,7.28
2022-09-20T02:56:48.229Z,7.22
2022-09-20T02:59:45.767Z,7.18
2022-09-20T03:02:51.401Z,7.18
2022-09-20T03:05:26.680Z,7.13
2022-09-20T03:08:32.681Z,7.14
2022-09-20T03:11:11.733Z,7.05
2022-09-20T03:14:05.705Z,7.09
2022-09-20T03:16:57.500Z,7.05
2022-09-20T03:20:01.971Z,7.03
2022-09-20T03:22:34.785Z,7.00
2022-09-20T03:25:07.980Z,7.00
2022-09-20T03:28:09.497Z,6.98
2022-09-20T03:30:42.512Z,6.99
2022-09-20T03:33:26.971Z,6.97
2022-09-20T03:36:09.673Z,6.96
2022-09-20T03:38:53.265Z,6.94
2022-09-20T03:41:44.988Z,6.97
2022-09-20T03:44:21.191Z,6.97
2022-09-20T03:46:52.019Z,6.98
2022-09-20T03:49:46.197Z,6.97
2022-09-20T03:52:16.475Z,6.97
2022-09-20T03:54:49.854Z,6.92
2022-09-20T03:57:45.111Z,6.90
2022-09-20T04:00:23.623Z,6.85
2022-09-20T04:02:59.411Z,6.83
2022-09-20T04:05:47.725Z,6.85
2022-09-20T04:08:41.292Z,6.84
2022-09-20T04:11:20.261Z,6.84
2022-09-20T04:13:55.668Z,6.83
2022-09-20T04:16:51.650Z,6.80
2022-09-20T04:19:42.148Z,6.85
2022-09-20T04:22:09.352Z,6.77
2022-09-20T04:25:04.902Z,6.78
2022-09-20T04:27:42.395Z,6.72
2022-09-20T04:30:24.264Z,6.73
2022-09-20T04:32:59.145Z,6.70
2022-09-20T04:36:29.709Z,6.72
2022-09-20T04:39:06.169Z,6.75
2022-09-20T04:41:57.734Z,6.74
2022-09-20T04:44:27.785Z,6.75
2022-09-20T04:47:32.512Z,6.78
2022-09-20T04:50:28.591Z,6.79
2022-09-20T04:53:24.770Z,6.83
2022-09-20T04:56:04.631Z,6.86
2022-09-20T04:58:38.340Z,6.91
2022-09-20T05:01:32.534Z,6.97
2022-09-20T05:04:40.632Z,7.02
2022-09-20T05:07:29.046Z,7.10
2022-09-20T05:10:02.156Z,7.17
2022-09-20T05:12:44.422Z,7.28
2022-09-20T05:15:37.710Z,7.33
2022-09-20T05:18:07.859Z,7.33
2022-09-20T05:20:59.771Z,7.42
2022-09-20T05:23:58.830Z,7.51
2022-09-20T05:26:36.537Z,7.53
2022-09-20T05:29:10.175Z,7.61
2022-09-20T05:31:39.025Z,7.72
2022-09-20T05:34:24.457Z,7.75
2022-09-20T05:37:21.900Z,7.75
2022-09-20T05:40:05.543Z,7.81
2022-09-20T05:42:52.382Z,7.85
2022-09-20T05:45:34.308Z,7.86
2022-09-20T05:48:07.583Z,7.92
2022-09-20T05:51:03.649Z,8.02
2022-09-20T05:53:50.853Z,8.12
2022-09-20T05:56:29.677Z,8.15
2022-09-20T05:59:12.801Z,8.20
2022-09-20T06:01:42.738Z,8.23
2022-09-20T06:04:16.086Z,8.36
2022-09-20T06:06:58.633Z,8.42
2022-09-20T06:09:44.721Z,8.47
2022-09-20T06:12:17.010Z,8.55
2022-09-20T06:15:04.775Z,8.62
2022-09-20T06:17:39.534Z,8.70
2022-09-20T06:20:31.121Z,8.66
2022-09-20T06:23:00.173Z,8.75
2022-09-20T06:25:31.217Z,8.89
2022-09-20T06:28:18.763Z,8.98
2022-09-20T06:30:50.496Z,9.12
2022-09-20T06:33:20.636Z,9.16
2022-09-20T06:35:59.005Z,9.26
2022-09-20T06:39:03.383Z,9.29
2022-09-20T06:41:32.975Z,9.27
2022-09-20T06:44:04.422Z,9.41
2022-09-20T06:46:34.232Z,9.41
2022-09-20T06:49:01.221Z,9.43
2022-09-20T06:51:33.838Z,9.56
2022-09-20T06:54:01.496Z,9.76
2022-09-20T06:56:30.741Z,9.87
2022-09-20T06:58:57.806Z,9.97
2022-09-20T07:01:30.195Z,9.94
2022-09-20T07:03:58.913Z,10.10
2022-09-20T07:06:26.758Z,9.95
2022-09-20T07:08:53.740Z,9.79
2022-09-20T07:11:23.390Z,9.75
2022-09-20T07:13:52.641Z,9.80
2022-09-20T07:16:20.537Z,10.12
2022-09-20T07:18:48.831Z,10.27
2022-09-20T07:21:18.702Z,10.28
2022-09-20T07:23:46.141Z,10.43
2022-09-20T07:26:25.531Z,10.53
2022-09-20T07:28:53.509Z,10.50
2022-09-20T07:31:22.936Z,10.35
2022-09-20T07:33:50.008Z,10.35
2022-09-20T07:36:17.486Z,10.21
2022-09-20T07:38:48.948Z,10.17
2022-09-20T07:41:18.748Z,10.03
2022-09-20T07:43:46.706Z,10.09
2022-09-20T07:46:13.792Z,10.23
2022-09-20T07:48:41.307Z,10.30
2022-09-20T07:51:11.209Z,10.56
2022-09-20T07:53:38.913Z,10.85
2022-09-20T07:56:08.432Z,11.00
2022-09-20T07:58:36.578Z,11.01
2022-09-20T08:01:06.466Z,10.86
2022-09-20T08:03:34.895Z,11.04
2022-09-20T08:06:04.512Z,11.09
2022-09-20T08:08:39.711Z,10.99
2022-09-20T08:11:09.263Z,11.26
2022-09-20T08:16:30.854Z,11.45
2022-09-20T08:18:59.836Z,11.58
2022-09-20T08:21:31.030Z,11.61
2022-09-20T08:23:58.984Z,11.76
2022-09-20T08:26:27.743Z,11.75
2022-09-20T08:28:57.441Z,11.71
2022-09-20T08:31:28.138Z,11.89
2022-09-20T08:33:55.539Z,12.21
2022-09-20T08:36:24.675Z,12.40
2022-09-20T08:41:47.765Z,12.36
2022-09-20T08:44:19.794Z,12.38
2022-09-20T08:46:49.110Z,12.62
2022-09-20T08:49:27.068Z,12.45
2022-09-20T08:51:54.934Z,12.73
2022-09-20T08:54:24.294Z,12.81
2022-09-20T08:56:52.014Z,12.62
2022-09-20T08:59:21.019Z,12.38
2022-09-20T09:01:49.838Z,12.34
2022-09-20T09:04:19.212Z,12.24
2022-09-20T09:06:46.793Z,12.24
2022-09-20T09:09:26.006Z,12.17
2022-09-20T09:11:55.293Z,12.18
2022-09-20T09:14:47.426Z,12.00
2022-09-20T09:17:17.124Z,12.02
2022-09-20T09:19:45.519Z,12.30
2022-09-20T09:22:18.639Z,12.56
2022-09-20T09:24:46.294Z,12.50
2022-09-20T09:27:19.367Z,12.47
2022-09-20T09:29:54.320Z,12.43
2022-09-20T09:32:31.218Z,12.37
2022-09-20T09:35:26.361Z,12.43
2022-09-20T09:37:59.250Z,12.86
2022-09-20T09:40:28.463Z,12.87
2022-09-20T09:43:03.128Z,12.81
2022-09-20T09:45:38.489Z,12.78
2022-09-20T09:48:23.859Z,12.57
2022-09-20T09:51:07.716Z,12.58
2022-09-20T09:53:35.762Z,12.51
2022-09-20T09:56:19.564Z,12.54
2022-09-20T09:58:58.412Z,12.59
2022-09-20T10:01:44.569Z,12.52
2022-09-20T10:04:30.217Z,12.32
2022-09-20T10:07:00.011Z,12.50
2022-09-20T10:09:30.210Z,12.45
2022-09-20T10:12:26.330Z,12.50
2022-09-20T10:15:04.988Z,12.60
2022-09-20T10:17:51.036Z,12.98
2022-09-20T10:20:37.343Z,12.94
2022-09-20T10:26:22.209Z,12.84
2022-09-20T10:28:59.345Z,12.89
2022-09-20T10:31:57.366Z,13.26
2022-09-20T10:34:45.800Z,13.60
2022-09-20T10:37:25.843Z,13.70
2022-09-20T10:40:03.605Z,13.78
2022-09-20T10:43:08.129Z,13.59
2022-09-20T10:46:20.967Z,13.44
2022-09-20T10:48:52.426Z,13.02
2022-09-20T10:51:25.747Z,12.88
2022-09-20T10:54:21.948Z,12.77
2022-09-20T10:56:56.241Z,12.73
2022-09-20T10:59:44.238Z,12.62
2022-09-20T11:02:39.011Z,12.49
2022-09-20T11:05:18.688Z,12.77
2022-09-20T11:07:54.492Z,12.71
2022-09-20T11:10:25.496Z,12.89
2022-09-20T11:13:00.667Z,13.11
2022-09-20T11:15:33.520Z,13.27
2022-09-20T11:18:05.217Z,13.53
2022-09-20T11:20:37.359Z,13.67
2022-09-20T11:23:17.220Z,14.18
2022-09-20T11:25:54.546Z,14.51
2022-09-20T11:28:32.806Z,14.49
2022-09-20T11:31:20.318Z,14.44
2022-09-20T11:33:52.839Z,14.38
2022-09-20T11:36:31.376Z,14.75
2022-09-20T11:39:03.769Z,14.81
2022-09-20T11:41:34.865Z,14.69
2022-09-20T11:44:07.815Z,14.69
2022-09-20T11:47:04.607Z,14.61
2022-09-20T11:49:59.065Z,14.81
2022-09-20T11:52:44.770Z,14.71
2022-09-20T11:55:17.788Z,14.53
2022-09-20T11:57:46.740Z,14.52
2022-09-20T12:00:13.803Z,14.25
2022-09-20T12:02:48.582Z,14.36
2022-09-20T12:05:35.878Z,14.52
2022-09-20T12:08:06.641Z,14.65
2022-09-20T12:10:37.431Z,14.44
2022-09-20T12:13:07.273Z,14.53
2022-09-20T12:15:40.622Z,14.65
2022-09-20T12:18:33.170Z,14.68
2022-09-20T12:21:09.018Z,14.69
2022-09-20T12:23:45.312Z,14.54
2022-09-20T12:26:21.662Z,14.28
2022-09-20T12:28:52.694Z,14.59
2022-09-20T12:31:22.428Z,14.87
2022-09-20T12:34:25.480Z,14.68
2022-09-20T12:36:55.465Z,14.91
2022-09-20T12:39:30.506Z,14.85
2022-09-20T12:42:24.784Z,14.94
2022-09-20T12:45:04.789Z,14.57
2022-09-20T12:47:34.216Z,14.36
2022-09-20T12:50:31.700Z,14.27
2022-09-20T12:53:01.440Z,14.40
2022-09-20T12:55:46.950Z,14.69
2022-09-20T12:58:16.892Z,14.71
2022-09-20T13:00:58.277Z,14.83
2022-09-20T13:03:32.020Z,14.79
2022-09-20T13:06:11.990Z,14.72
2022-09-20T13:08:52.367Z,14.62
2022-09-20T13:11:43.763Z,14.70
2022-09-20T13:14:12.382Z,14.43
2022-09-20T13:17:06.711Z,14.21
2022-09-20T13:19:42.146Z,14.64
2022-09-20T13:22:14.836Z,14.46
2022-09-20T13:24:45.126Z,14.17
2022-09-20T13:27:37.285Z,13.92
2022-09-20T13:30:24.206Z,13.70
2022-09-20T13:32:51.766Z,13.97
2022-09-20T13:35:21.572Z,14.15
2022-09-20T13:37:49.350Z,14.54
2022-09-20T13:40:21.708Z,14.88
2022-09-20T13:42:50.703Z,14.97
2022-09-20T13:45:19.969Z,15.08
2022-09-20T13:47:52.142Z,14.72
2022-09-20T13:50:45.779Z,14.42
2022-09-20T13:53:39.475Z,14.25
2022-09-20T13:56:10.677Z,13.81
2022-09-20T13:58:38.104Z,13.52
2022-09-20T14:01:09.207Z,13.27
2022-09-20T14:03:36.701Z,13.18
2022-09-20T14:06:14.084Z,13.26
2022-09-20T14:08:44.645Z,13.16
2022-09-20T14:11:21.186Z,13.07
2022-09-20T14:13:54.225Z,13.22
2022-09-20T14:16:23.870Z,13.44
2022-09-20T14:18:51.272Z,13.35
2022-09-20T14:21:22.705Z,13.31
2022-09-20T14:23:58.303Z,13.45
2022-09-20T14:26:33.669Z,13.72
2022-09-20T14:29:34.737Z,13.98
2022-09-20T14:32:15.222Z,14.23
2022-09-20T14:34:42.684Z,14.61
2022-09-20T14:37:14.541Z,14.80
2022-09-20T14:39:50.844Z,14.78
2022-09-20T14:42:30.198Z,14.61
2022-09-20T14:44:57.272Z,14.30
2022-09-20T14:47:54.284Z,14.02
2022-09-20T14:50:24.271Z,13.94
2022-09-20T14:53:13.502Z,13.59
2022-09-20T14:56:07.863Z,13.43
2022-09-20T14:58:55.176Z,13.07
2022-09-20T15:01:24.439Z,12.88
2022-09-20T15:03:52.091Z,12.68
2022-09-20T15:06:19.484Z,12.61
2022-09-20T15:08:46.937Z,12.58
2022-09-20T15:11:15.910Z,12.37
2022-09-20T15:13:42.885Z,12.29
2022-09-20T15:16:12.724Z,12.06
2022-09-20T15:18:41.829Z,11.95
2022-09-20T15:21:10.838Z,11.82
2022-09-20T15:23:39.407Z,11.72
2022-09-20T15:26:08.888Z,11.66
2022-09-20T15:28:38.907Z,11.53
2022-09-20T15:31:06.326Z,11.28
2022-09-20T15:33:33.632Z,11.16
2022-09-20T15:36:02.465Z,11.10
2022-09-20T15:38:29.818Z,11.03
2022-09-20T15:41:00.220Z,10.91
2022-09-20T15:43:28.161Z,10.79
2022-09-20T15:46:00.684Z,10.74
2022-09-20T15:48:30.207Z,10.67
2022-09-20T15:51:02.786Z,10.67
2022-09-20T15:53:35.322Z,10.59
2022-09-20T15:56:05.923Z,10.58
2022-09-20T15:58:36.322Z,10.52
2022-09-20T16:01:05.624Z,10.48
2022-09-20T16:03:34.686Z,10.32
2022-09-20T16:06:06.921Z,10.33
2022-09-20T16:08:35.988Z,10.30
2022-09-20T16:11:04.167Z,10.33
2022-09-20T16:13:31.369Z,10.23
2022-09-20T16:16:00.581Z,10.18
2022-09-20T16:18:47.140Z,10.05
2022-09-20T16:21:16.664Z,10.00
2022-09-20T16:23:52.152Z,10.07
2022-09-20T16:26:21.496Z,10.05
2022-09-20T16:28:49.234Z,10.12
2022-09-20T16:31:42.905Z,10.12
2022-09-20T16:34:19.478Z,10.07
2022-09-20T16:36:51.407Z,10.05
2022-09-20T16:39:20.255Z,10.00
2022-09-20T16:41:48.657Z,10.01
2022-09-20T16:44:16.042Z,9.98
2022-09-20T16:46:45.492Z,9.92
2022-09-20T16:49:13.497Z,9.86
2022-09-20T16:51:41.581Z,9.70
2022-09-20T16:54:13.766Z,9.58
2022-09-20T16:56:45.340Z,9.52
2022-09-20T16:59:14.137Z,9.45
2022-09-20T17:01:42.410Z,9.36
2022-09-20T17:04:10.265Z,9.34
2022-09-20T17:06:38.407Z,9.29
2022-09-20T17:09:06.833Z,9.29
2022-09-20T17:11:36.815Z,9.26
2022-09-20T17:14:04.977Z,9.20
2022-09-20T17:16:34.696Z,9.23
2022-09-20T17:19:13.038Z,9.21
2022-09-20T17:21:49.212Z,9.19
2022-09-20T17:24:17.705Z,9.13
2022-09-20T17:26:45.545Z,9.10
2022-09-20T17:29:17.055Z,8.97
2022-09-20T17:31:51.480Z,8.94
2022-09-20T17:34:21.879Z,8.96
2022-09-20T17:36:50.509Z,9.00
2022-09-20T17:39:18.032Z,8.91
2022-09-20T17:41:47.338Z,8.93
2022-09-20T17:44:15.213Z,8.84
2022-09-20T17:46:44.114Z,8.87
2022-09-20T17:49:13.021Z,8.90
2022-09-20T17:51:42.240Z,8.85
2022-09-20T17:54:12.850Z,8.91
2022-09-20T17:56:42.689Z,8.87
2022-09-20T17:59:11.066Z,8.86
2022-09-20T18:01:38.966Z,8.84
2022-09-20T18:04:06.856Z,8.84
2022-09-20T18:06:52.933Z,8.84
2022-09-20T18:09:24.165Z,8.79
2022-09-20T18:11:53.262Z,8.77
2022-09-20T18:14:25.666Z,8.77
2022-09-20T18:16:55.384Z,8.69
2022-09-20T18:19:23.013Z,8.68
2022-09-20T18:21:50.694Z,8.66
2022-09-20T18:24:17.924Z,8.65
2022-09-20T18:26:45.239Z,8.65
2022-09-20T18:29:14.312Z,8.59
2022-09-20T18:31:45.240Z,8.60
2022-09-20T18:34:18.485Z,8.53
2022-09-20T18:36:52.520Z,8.46
2022-09-20T18:39:24.239Z,8.53
2022-09-20T18:41:53.241Z,8.47
2022-09-20T18:44:23.870Z,8.42
2022-09-20T18:46:54.175Z,8.39
2022-09-20T18:49:22.025Z,8.38
2022-09-20T18:51:49.486Z,8.32
2022-09-20T18:54:17.008Z,8.33
2022-09-20T18:56:46.233Z,8.29
2022-09-20T18:59:18.681Z,8.32
2022-09-20T19:01:58.100Z,8.29
2022-09-20T19:04:43.565Z,8.21
2022-09-20T19:07:27.455Z,8.22
2022-09-20T19:10:00.343Z,8.16
2022-09-20T19:12:39.247Z,8.15
2022-09-20T19:15:22.875Z,8.18
2022-09-20T19:17:50.557Z,8.16
2022-09-20T19:20:26.228Z,8.20
2022-09-20T19:23:00.947Z,8.12
2022-09-20T19:25:43.391Z,8.12
2022-09-20T19:28:12.339Z,8.09
2022-09-20T19:30:40.562Z,8.08
2022-09-20T19:33:26.015Z,8.06
2022-09-20T19:35:53.810Z,8.03
2022-09-20T19:38:42.042Z,7.98
2022-09-20T19:41:34.088Z,7.94
2022-09-20T19:44:15.308Z,7.94
2022-09-20T19:47:11.890Z,7.91
2022-09-20T19:49:56.185Z,7.89
2022-09-20T19:52:23.901Z,7.87
2022-09-20T19:54:51.758Z,7.80
2022-09-20T19:57:23.835Z,7.78
2022-09-20T19:59:51.415Z,7.75
2022-09-20T20:02:18.678Z,7.69
2022-09-20T20:04:46.347Z,7.66
2022-09-20T20:07:28.689Z,7.64
2022-09-20T20:09:58.896Z,7.66
2022-09-20T20:12:49.221Z,7.61
2022-09-20T20:15:35.183Z,7.63
2022-09-20T20:18:25.583Z,7.66
2022-09-20T20:20:54.860Z,7.66
2022-09-20T20:23:31.036Z,7.69
2022-09-20T20:26:06.195Z,7.72
2022-09-20T20:28:33.541Z,7.69
2022-09-20T20:31:03.903Z,7.67
2022-09-20T20:33:32.770Z,7.67
2022-09-20T20:36:22.597Z,7.69
2022-09-20T20:38:51.768Z,7.66
2022-09-20T20:41:21.696Z,7.70
2022-09-20T20:43:56.291Z,7.72
2022-09-20T20:46:24.429Z,7.74
2022-09-20T20:48:51.500Z,7.75
2022-09-20T20:51:20.894Z,7.68
2022-09-20T20:53:52.558Z,7.70
2022-09-20T20:56:28.574Z,7.72
2022-09-20T20:59:00.476Z,7.72
2022-09-20T21:01:32.830Z,7.76
2022-09-20T21:04:03.756Z,7.76
2022-09-20T21:06:33.062Z,7.79
2022-09-20T21:09:00.596Z,7.79
2022-09-20T21:11:30.266Z,7.85
2022-09-20T21:13:58.945Z,7.85
2022-09-20T21:16:30.018Z,7.89
2022-09-20T21:18:58.067Z,7.89
2022-09-20T21:21:26.971Z,7.94
2022-09-20T21:23:56.855Z,7.97
2022-09-20T21:26:25.381Z,7.97
2022-09-20T21:28:59.556Z,7.95
2022-09-20T21:31:28.892Z,7.94
2022-09-20T21:33:56.293Z,7.94
2022-09-20T21:36:26.295Z,7.96
2022-09-20T21:38:53.944Z,7.91
2022-09-20T21:41:31.384Z,7.98
2022-09-20T21:44:00.370Z,7.97
2022-09-20T21:46:29.736Z,7.98
2022-09-20T21:48:58.058Z,7.97
2022-09-20T21:51:26.868Z,7.97
2022-09-20T21:53:56.514Z,7.95
2022-09-20T21:56:25.076Z,7.97
2022-09-20T21:58:52.381Z,7.97
2022-09-20T22:01:21.496Z,7.94
2022-09-20T22:03:54.992Z,7.89
2022-09-20T22:06:30.063Z,7.87
2022-09-20T22:08:59.122Z,7.76
2022-09-20T22:11:28.529Z,7.75
2022-09-20T22:13:56.048Z,7.72
2022-09-20T22:16:31.050Z,7.69
2022-09-20T22:19:01.789Z,7.62
2022-09-20T22:21:31.320Z,7.60
2022-09-20T22:24:01.050Z,7.57
2022-09-20T22:26:34.379Z,7.57
2022-09-20T22:29:01.953Z,7.49
2022-09-20T22:31:33.823Z,7.48
2022-09-20T22:34:03.974Z,7.50
2022-09-20T22:36:39.050Z,7.44
2022-09-20T22:39:07.908Z,7.48
2022-09-20T22:41:36.131Z,7.47
2022-09-20T22:44:04.172Z,7.46
2022-09-20T22:46:32.211Z,7.43
2022-09-20T22:48:59.506Z,7.45
2022-09-20T22:51:33.626Z,7.43
2022-09-20T22:54:05.112Z,7.41
2022-09-20T22:56:33.024Z,7.44
2022-09-20T22:59:06.587Z,7.39
2022-09-20T23:01:35.788Z,7.31
2022-09-20T23:04:08.821Z,7.31
2022-09-20T23:06:38.531Z,7.34
2022-09-20T23:09:08.625Z,7.25
2022-09-20T23:11:36.207Z,7.22
2022-09-20T23:14:07.916Z,7.19
2022-09-20T23:16:36.769Z,7.18
2022-09-20T23:19:05.708Z,7.16
2022-09-20T23:21:33.246Z,7.20
2022-09-20T23:24:02.398Z,7.08
2022-09-20T23:26:31.247Z,7.06
2022-09-20T23:29:03.897Z,7.04
2022-09-20T23:31:32.618Z,6.99
2022-09-20T23:34:01.443Z,7.00
2022-09-20T23:36:30.607Z,7.03
2022-09-20T23:38:58.063Z,6.99
2022-09-20T23:41:26.523Z,6.91
2022-09-20T23:43:53.563Z,6.88
2022-09-20T23:46:22.640Z,6.86
2022-09-20T23:48:52.895Z,6.89
2022-09-20T23:51:22.553Z,6.89
2022-09-20T23:53:51.361Z,6.92
2022-09-20T23:56:19.321Z,6.91
2022-09-20T23:58:46.459Z,6.97
